Weather reports worldwide

Advertisment
Sciacca, Italy (16436): temperature & dewpoint: 18.06.2018 11:00:00 - 24.06.2018 11:00:00 (CEST)Sciacca, Italy (16436): wind speed: 18.06.2018 11:00:00 - 24.06.2018 11:00:00 (CEST)Sciacca, Italy (16436): wind direction: 18.06.2018 11:00:00 - 24.06.2018 11:00:00 (CEST)Sciacca, Italy (16436): reduced air pressure: 18.06.2018 11:00:00 - 24.06.2018 11:00:00 (CEST)Sciacca, Italy (16436): precipitation: 18.06.2018 11:00:00 - 24.06.2018 11:00:00 (CEST)
Date & Time tt [°C] td [°C] ff [km/h] ff [kn] dd ppp [hPa] rr [mm]
24.06.2018 11:00:00 - - - - - - -
24.06.2018 10:00:00 23,0 20,1 4 2 SW 1025,0 -
24.06.2018 09:00:00 22,0 20,6 2 1 S 1025,3 -
24.06.2018 08:00:00 20,5 20,0 2 1 NE 1025,2 0,0
24.06.2018 07:00:00 18,3 18,1 5 3 NNE 1025,2 -
24.06.2018 06:00:00 17,4 16,9 4 2 N 1025,2 -
24.06.2018 05:00:00 18,0 17,3 5 3 NE 1025,1 -
24.06.2018 04:00:00 18,8 18,1 5 3 N 1025,0 -
24.06.2018 03:00:00 19,2 18,7 8 4 NW 1025,3 -
24.06.2018 02:00:00 19,1 18,2 4 2 SSW 1025,5 0,0
24.06.2018 01:00:00 19,9 19,2 15 8 WNW 1025,4 -
24.06.2018 00:00:00 20,0 18,9 9 5 W 1025,3 -
23.06.2018 23:00:00 20,1 19,0 9 5 W 1025,3 -
23.06.2018 22:00:00 20,3 18,9 - - - 1024,8 -
23.06.2018 21:00:00 20,9 19,5 13 7 W 1024,1 -
23.06.2018 20:00:00 22,2 19,7 - - - 1023,6 0,0
23.06.2018 19:00:00 24,5 19,9 - - - 1023,1 -
23.06.2018 18:00:00 25,5 18,1 - - - 1023,2 -
23.06.2018 17:00:00 25,6 15,5 - - - 1023,9 -
23.06.2018 16:00:00 25,7 20,7 - - - 1024,2 -
23.06.2018 15:00:00 26,3 18,9 - - - 1024,2 -
23.06.2018 14:00:00 26,1 19,2 - - - 1024,4 0,0
23.06.2018 13:00:00 26,7 21,4 - - - 1024,4 -
23.06.2018 12:00:00 24,8 22,6 - - - 1025,0 -
23.06.2018 11:00:00 23,4 22,0 - - - 1025,4 -
23.06.2018 10:00:00 23,0 21,6 9 5 SW 1025,5 -
23.06.2018 09:00:00 22,4 21,2 5 3 SSW 1025,6 -
23.06.2018 08:00:00 21,2 20,5 2 1 W 1025,9 0,0
23.06.2018 07:00:00 19,4 19,2 9 5 W 1025,9 -
23.06.2018 06:00:00 18,3 17,9 2 1 E 1025,7 -
23.06.2018 05:00:00 18,7 18,3 9 5 NW 1025,4 -
23.06.2018 04:00:00 18,4 18,0 4 2 NE 1025,4 -
23.06.2018 03:00:00 18,4 17,9 2 1 W 1025,6 -
23.06.2018 02:00:00 19,0 18,5 2 1 ENE 1025,6 0,0
23.06.2018 01:00:00 19,4 18,7 4 2 W 1025,6 -
23.06.2018 00:00:00 20,4 19,7 2 1 ENE 1025,3 -
22.06.2018 23:00:00 21,3 20,6 - - - 1025,0 -
22.06.2018 22:00:00 21,7 21,0 11 6 WNW 1024,7 -
22.06.2018 21:00:00 21,8 20,9 - - - 1023,7 -
22.06.2018 20:00:00 22,8 21,4 - - - 1023,9 0,0
22.06.2018 19:00:00 23,4 21,8 - - - 1023,9 -
22.06.2018 18:00:00 24,6 22,4 - - - 1023,9 -
22.06.2018 17:00:00 23,4 22,0 - - - 1024,1 -
22.06.2018 16:00:00 23,2 21,8 - - - 1024,6 -
22.06.2018 15:00:00 23,1 21,5 - - - 1025,1 -
22.06.2018 14:00:00 23,4 21,2 - - - 1025,5 0,0
22.06.2018 13:00:00 23,6 21,2 - - - 1025,9 -
22.06.2018 12:00:00 22,9 21,3 - - - 1026,3 -
22.06.2018 11:00:00 22,5 20,4 15 8 WSW 1026,5 -
22.06.2018 10:00:00 22,0 20,9 8 4 SW 1026,3 -
22.06.2018 09:00:00 21,1 20,7 2 1 NE 1026,8 -
22.06.2018 08:00:00 19,4 19,3 0 0 N 1027,2 0,0
22.06.2018 07:00:00 17,8 17,6 2 1 W 1027,0 -
22.06.2018 06:00:00 16,6 16,4 2 1 NNE 1026,6 -
22.06.2018 05:00:00 17,5 17,3 5 3 NE 1026,6 -
22.06.2018 04:00:00 17,5 17,1 0 0 N 1026,9 -
22.06.2018 03:00:00 18,7 18,3 4 2 NNE 1027,2 -
22.06.2018 02:00:00 19,3 18,9 0 0 N 1027,5 0,0
22.06.2018 01:00:00 19,2 18,8 0 0 N 1027,5 -
22.06.2018 00:00:00 19,8 19,3 0 0 N 1027,6 -
21.06.2018 23:00:00 19,3 18,6 4 2 NE 1027,6 -
21.06.2018 22:00:00 20,3 19,6 0 0 N 1027,0 -
21.06.2018 21:00:00 20,8 19,9 5 3 SW 1026,4 -
21.06.2018 20:00:00 21,6 20,5 - - - 1026,2 0,0
21.06.2018 19:00:00 22,5 21,1 - - - 1025,8 -
21.06.2018 18:00:00 22,6 21,0 - - - 1026,2 -
21.06.2018 17:00:00 24,1 21,2 13 7 SW 1026,4 -
21.06.2018 16:00:00 24,7 20,1 13 7 SW 1026,5 -
21.06.2018 15:00:00 24,1 21,0 13 7 SW 1027,1 -
21.06.2018 14:00:00 - - - - - - -
21.06.2018 13:00:00 - - - - - - -
21.06.2018 12:00:00 - - - - - - -
21.06.2018 11:00:00 22,9 20,4 5 3 SSE 1028,3 -
21.06.2018 10:00:00 21,8 20,2 4 2 S 1028,5 -
21.06.2018 09:00:00 20,7 20,2 4 2 SW 1028,6 -
21.06.2018 08:00:00 19,4 19,3 2 1 SW 1028,9 0,0
21.06.2018 07:00:00 17,9 17,8 4 2 NE 1028,6 -
21.06.2018 06:00:00 16,6 16,4 2 1 NE 1028,4 -
21.06.2018 05:00:00 16,6 16,4 2 1 NNE 1028,4 -
21.06.2018 04:00:00 16,9 16,7 0 0 N 1028,4 -
21.06.2018 03:00:00 17,0 16,6 4 2 NNE 1028,5 -
21.06.2018 02:00:00 17,3 16,9 2 1 NNE 1028,6 0,0
21.06.2018 01:00:00 17,3 16,9 2 1 W 1028,8 -
21.06.2018 00:00:00 17,5 17,0 0 0 N 1029,0 -
20.06.2018 23:00:00 18,0 17,5 4 2 NNE 1029,0 -
20.06.2018 22:00:00 18,5 18,0 4 2 N 1028,5 -
20.06.2018 21:00:00 19,2 18,3 4 2 N 1028,0 -
20.06.2018 20:00:00 20,3 19,6 0 0 N 1027,9 0,0
20.06.2018 19:00:00 21,0 20,5 2 1 SSE 1027,4 -
20.06.2018 18:00:00 20,2 19,7 4 2 N 1027,0 -
20.06.2018 17:00:00 20,0 19,5 4 2 NNE 1028,1 -
20.06.2018 16:00:00 19,5 18,6 4 2 NNE 1029,5 -
20.06.2018 15:00:00 21,3 19,7 9 5 NE 1028,8 -
20.06.2018 14:00:00 24,8 15,1 8 4 SW 1027,0 0,0
20.06.2018 13:00:00 26,2 15,5 9 5 SW 1026,4 -
20.06.2018 12:00:00 26,8 16,1 8 4 SSW 1026,5 -
20.06.2018 11:00:00 26,6 16,2 5 3 NW 1026,6 -
20.06.2018 10:00:00 26,1 18,4 4 2 SSW 1026,8 -
20.06.2018 09:00:00 24,9 19,7 4 2 SSE 1027,1 -
20.06.2018 08:00:00 23,2 21,4 0 0 N 1027,1 0,0
20.06.2018 07:00:00 20,7 19,3 0 0 N 1027,0 -
20.06.2018 06:00:00 19,6 18,4 2 1 NE 1026,8 -
20.06.2018 05:00:00 19,7 18,6 2 1 W 1026,5 -
20.06.2018 04:00:00 19,0 18,3 5 3 NNE 1026,5 -
20.06.2018 03:00:00 18,3 17,6 5 3 NE 1026,6 -
20.06.2018 02:00:00 17,9 17,0 4 2 E 1026,7 0,0
20.06.2018 01:00:00 18,4 17,4 2 1 N 1026,7 -
20.06.2018 00:00:00 18,8 17,6 2 1 NE 1026,5 -
19.06.2018 23:00:00 19,2 17,8 4 2 NE 1026,2 -
19.06.2018 22:00:00 19,8 18,2 4 2 N 1025,7 -
19.06.2018 21:00:00 21,3 19,4 0 0 N 1025,1 -
19.06.2018 20:00:00 23,0 20,7 2 1 E 1024,5 0,0
19.06.2018 19:00:00 24,0 20,9 4 2 SE 1024,2 -
19.06.2018 18:00:00 22,8 20,3 8 4 NE 1024,3 -
19.06.2018 17:00:00 20,9 19,3 9 5 NNE 1024,9 -
19.06.2018 16:00:00 25,5 17,4 4 2 NNE 1024,0 -
19.06.2018 15:00:00 26,8 14,8 13 7 W 1022,9 -
19.06.2018 14:00:00 26,0 17,6 18 10 WSW 1023,6 0,0
19.06.2018 13:00:00 25,8 15,7 13 7 WSW 1023,7 -
19.06.2018 12:00:00 25,6 15,8 9 5 SW 1023,6 -
19.06.2018 11:00:00 25,2 15,4 5 3 ESE 1023,9 -
19.06.2018 10:00:00 24,2 17,6 4 2 SW 1023,8 -
19.06.2018 09:00:00 23,2 18,9 4 2 S 1024,0 -
19.06.2018 08:00:00 22,4 20,3 4 2 ENE 1023,9 0,0
19.06.2018 07:00:00 18,8 17,2 2 1 W 1023,8 -
19.06.2018 06:00:00 18,8 17,1 5 3 NE 1023,4 -
19.06.2018 05:00:00 18,2 16,5 5 3 NE 1023,2 -
19.06.2018 04:00:00 19,1 16,8 4 2 N 1023,3 -
19.06.2018 03:00:00 20,0 16,4 4 2 ENE 1023,0 -
19.06.2018 02:00:00 20,9 17,4 11 6 NNW 1023,2 0,0
19.06.2018 01:00:00 20,2 16,4 4 2 WNW 1023,5 -
19.06.2018 00:00:00 21,6 16,0 4 2 W 1023,3 -
18.06.2018 23:00:00 23,0 13,4 16 9 NW 1022,9 -
18.06.2018 22:00:00 22,5 11,2 4 2 ESE 1022,3 -
18.06.2018 21:00:00 24,4 11,0 11 6 N 1021,8 -
18.06.2018 20:00:00 25,5 11,3 16 9 NNW 1021,3 0,0
18.06.2018 19:00:00 27,1 11,5 16 9 NNW 1020,4 -
18.06.2018 18:00:00 28,0 12,0 16 9 NNW 1020,5 -
18.06.2018 17:00:00 29,2 12,6 13 7 NNW 1020,5 -
18.06.2018 16:00:00 27,1 19,6 22 12 W 1020,9 -
18.06.2018 15:00:00 26,9 20,4 26 14 W 1021,8 -
18.06.2018 14:00:00 24,7 20,1 24 13 WSW 1022,0 0,0
18.06.2018 13:00:00 26,4 20,4 22 12 W 1022,4 -
18.06.2018 12:00:00 25,2 20,2 28 15 W 1022,8 -
18.06.2018 11:00:00 27,1 11,5 13 7 NW 1022,7 -

tt = temperature
td = dewpoint
ff = wind speed
dd = wind direction
ppp = reduced air pressure
rr = precipitation

Next stations